sensor_id;sensor_type;location;lat;lon;timestamp;temperature;humidity
30594;DHT22;33199;47.590;8.300;2022-08-07T00:01:18;25.00;48.40
30594;DHT22;33199;47.590;8.300;2022-08-07T00:03:44;25.00;48.40
30594;DHT22;33199;47.590;8.300;2022-08-07T00:06:10;25.00;48.50
30594;DHT22;33199;47.590;8.300;2022-08-07T00:08:35;25.00;48.50
30594;DHT22;33199;47.590;8.300;2022-08-07T00:11:02;25.00;48.40
30594;DHT22;33199;47.590;8.300;2022-08-07T00:13:27;25.00;48.40
30594;DHT22;33199;47.590;8.300;2022-08-07T00:15:53;25.00;48.50
30594;DHT22;33199;47.590;8.300;2022-08-07T00:18:22;25.00;48.40
30594;DHT22;33199;47.590;8.300;2022-08-07T00:20:47;25.00;48.50
30594;DHT22;33199;47.590;8.300;2022-08-07T00:23:16;25.00;48.50
30594;DHT22;33199;47.590;8.300;2022-08-07T00:25:42;25.00;49.00
30594;DHT22;33199;47.590;8.300;2022-08-07T00:28:08;24.90;48.50
30594;DHT22;33199;47.590;8.300;2022-08-07T00:30:33;25.00;48.60
30594;DHT22;33199;47.590;8.300;2022-08-07T00:33:00;25.00;48.60
30594;DHT22;33199;47.590;8.300;2022-08-07T00:35:26;24.90;48.50
30594;DHT22;33199;47.590;8.300;2022-08-07T00:37:52;24.90;48.50
30594;DHT22;33199;47.590;8.300;2022-08-07T00:40:18;24.90;48.50
30594;DHT22;33199;47.590;8.300;2022-08-07T00:42:44;25.00;48.60
30594;DHT22;33199;47.590;8.300;2022-08-07T00:45:10;24.90;48.50
30594;DHT22;33199;47.590;8.300;2022-08-07T00:47:36;25.00;48.60
30594;DHT22;33199;47.590;8.300;2022-08-07T00:50:02;24.90;48.50
30594;DHT22;33199;47.590;8.300;2022-08-07T00:52:28;24.90;48.50
30594;DHT22;33199;47.590;8.300;2022-08-07T00:54:54;24.90;48.50
30594;DHT22;33199;47.590;8.300;2022-08-07T00:57:21;24.90;48.60
30594;DHT22;33199;47.590;8.300;2022-08-07T00:59:47;24.90;48.60
30594;DHT22;33199;47.590;8.300;2022-08-07T01:02:13;24.90;48.60
30594;DHT22;33199;47.590;8.300;2022-08-07T01:04:38;24.90;48.60
30594;DHT22;33199;47.590;8.300;2022-08-07T01:07:04;24.90;48.60
30594;DHT22;33199;47.590;8.300;2022-08-07T01:09:30;24.90;48.60
30594;DHT22;33199;47.590;8.300;2022-08-07T01:11:58;24.90;48.60
30594;DHT22;33199;47.590;8.300;2022-08-07T01:14:24;24.90;48.60
30594;DHT22;33199;47.590;8.300;2022-08-07T01:16:51;24.90;48.60
30594;DHT22;33199;47.590;8.300;2022-08-07T01:19:18;24.90;48.60
30594;DHT22;33199;47.590;8.300;2022-08-07T01:21:47;24.90;48.60
30594;DHT22;33199;47.590;8.300;2022-08-07T01:24:14;24.90;48.70
30594;DHT22;33199;47.590;8.300;2022-08-07T01:26:40;24.90;48.70
30594;DHT22;33199;47.590;8.300;2022-08-07T01:29:05;24.90;48.60
30594;DHT22;33199;47.590;8.300;2022-08-07T01:31:31;24.90;48.60
30594;DHT22;33199;47.590;8.300;2022-08-07T01:34:00;24.80;48.70
30594;DHT22;33199;47.590;8.300;2022-08-07T01:36:27;24.90;48.70
30594;DHT22;33199;47.590;8.300;2022-08-07T01:38:54;24.90;48.70
30594;DHT22;33199;47.590;8.300;2022-08-07T01:41:21;24.90;48.70
30594;DHT22;33199;47.590;8.300;2022-08-07T01:43:48;24.90;48.70
30594;DHT22;33199;47.590;8.300;2022-08-07T01:46:15;24.80;48.70
30594;DHT22;33199;47.590;8.300;2022-08-07T01:48:42;24.80;48.70
30594;DHT22;33199;47.590;8.300;2022-08-07T01:51:11;24.80;48.70
30594;DHT22;33199;47.590;8.300;2022-08-07T01:53:41;24.80;48.80
30594;DHT22;33199;47.590;8.300;2022-08-07T01:56:12;24.80;48.70
30594;DHT22;33199;47.590;8.300;2022-08-07T01:58:43;24.80;48.70
30594;DHT22;33199;47.590;8.300;2022-08-07T02:01:12;24.80;48.80
30594;DHT22;33199;47.590;8.300;2022-08-07T02:03:42;24.80;48.80
30594;DHT22;33199;47.590;8.300;2022-08-07T02:06:12;24.80;48.80
30594;DHT22;33199;47.590;8.300;2022-08-07T02:08:41;24.80;48.80
30594;DHT22;33199;47.590;8.300;2022-08-07T02:11:09;24.80;48.90
30594;DHT22;33199;47.590;8.300;2022-08-07T02:13:36;24.80;48.90
30594;DHT22;33199;47.590;8.300;2022-08-07T02:16:02;24.80;48.80
30594;DHT22;33199;47.590;8.300;2022-08-07T02:18:30;24.80;48.80
30594;DHT22;33199;47.590;8.300;2022-08-07T02:20:59;24.80;48.90
30594;DHT22;33199;47.590;8.300;2022-08-07T02:23:25;24.80;48.90
30594;DHT22;33199;47.590;8.300;2022-08-07T02:25:52;24.70;48.80
30594;DHT22;33199;47.590;8.300;2022-08-07T02:28:20;24.70;48.90
30594;DHT22;33199;47.590;8.300;2022-08-07T02:30:47;24.70;48.90
30594;DHT22;33199;47.590;8.300;2022-08-07T02:33:14;24.70;48.90
30594;DHT22;33199;47.590;8.300;2022-08-07T02:35:41;24.70;48.80
30594;DHT22;33199;47.590;8.300;2022-08-07T02:38:10;24.70;48.90
30594;DHT22;33199;47.590;8.300;2022-08-07T02:40:36;24.70;48.80
30594;DHT22;33199;47.590;8.300;2022-08-07T02:43:04;24.70;48.90
30594;DHT22;33199;47.590;8.300;2022-08-07T02:45:31;24.70;48.80
30594;DHT22;33199;47.590;8.300;2022-08-07T02:47:57;24.70;48.90
30594;DHT22;33199;47.590;8.300;2022-08-07T02:50:23;24.70;48.90
30594;DHT22;33199;47.590;8.300;2022-08-07T02:52:55;24.70;48.90
30594;DHT22;33199;47.590;8.300;2022-08-07T02:55:26;24.70;48.80
30594;DHT22;33199;47.590;8.300;2022-08-07T02:57:57;24.70;48.90
30594;DHT22;33199;47.590;8.300;2022-08-07T03:00:24;24.70;48.90
30594;DHT22;33199;47.590;8.300;2022-08-07T03:02:51;24.70;48.80
30594;DHT22;33199;47.590;8.300;2022-08-07T03:05:17;24.70;48.80
30594;DHT22;33199;47.590;8.300;2022-08-07T03:07:44;24.70;48.90
30594;DHT22;33199;47.590;8.300;2022-08-07T03:10:11;24.70;48.80
30594;DHT22;33199;47.590;8.300;2022-08-07T03:12:37;24.70;48.90
30594;DHT22;33199;47.590;8.300;2022-08-07T03:15:05;24.70;48.90
30594;DHT22;33199;47.590;8.300;2022-08-07T03:17:31;24.70;48.90
30594;DHT22;33199;47.590;8.300;2022-08-07T03:19:58;24.70;48.80
30594;DHT22;33199;47.590;8.300;2022-08-07T03:22:24;24.70;48.90
30594;DHT22;33199;47.590;8.300;2022-08-07T03:24:51;24.70;48.90
30594;DHT22;33199;47.590;8.300;2022-08-07T03:27:17;24.70;48.80
30594;DHT22;33199;47.590;8.300;2022-08-07T03:29:49;24.70;48.80
30594;DHT22;33199;47.590;8.300;2022-08-07T03:32:19;24.70;48.80
30594;DHT22;33199;47.590;8.300;2022-08-07T03:34:47;24.70;48.80
30594;DHT22;33199;47.590;8.300;2022-08-07T03:37:17;24.60;48.80
30594;DHT22;33199;47.590;8.300;2022-08-07T03:39:43;24.70;48.90
30594;DHT22;33199;47.590;8.300;2022-08-07T03:42:12;24.60;48.80
30594;DHT22;33199;47.590;8.300;2022-08-07T03:44:39;24.60;48.90
30594;DHT22;33199;47.590;8.300;2022-08-07T03:47:05;24.60;48.90
30594;DHT22;33199;47.590;8.300;2022-08-07T03:49:33;24.60;48.90
30594;DHT22;33199;47.590;8.300;2022-08-07T03:51:59;24.60;48.90
30594;DHT22;33199;47.590;8.300;2022-08-07T03:54:25;24.60;49.40
30594;DHT22;33199;47.590;8.300;2022-08-07T03:56:52;24.60;48.80
30594;DHT22;33199;47.590;8.300;2022-08-07T03:59:18;24.60;48.80
30594;DHT22;33199;47.590;8.300;2022-08-07T04:01:45;24.60;49.30
30594;DHT22;33199;47.590;8.300;2022-08-07T04:04:11;24.60;48.80
30594;DHT22;33199;47.590;8.300;2022-08-07T04:06:37;24.60;48.80
30594;DHT22;33199;47.590;8.300;2022-08-07T04:09:06;24.60;48.90
30594;DHT22;33199;47.590;8.300;2022-08-07T04:11:32;24.60;48.80
30594;DHT22;33199;47.590;8.300;2022-08-07T04:14:00;24.60;48.80
30594;DHT22;33199;47.590;8.300;2022-08-07T04:16:26;24.60;48.90
30594;DHT22;33199;47.590;8.300;2022-08-07T04:18:52;24.60;48.90
30594;DHT22;33199;47.590;8.300;2022-08-07T04:21:18;24.60;48.90
30594;DHT22;33199;47.590;8.300;2022-08-07T04:23:44;24.60;48.80
30594;DHT22;33199;47.590;8.300;2022-08-07T04:26:10;24.50;48.80
30594;DHT22;33199;47.590;8.300;2022-08-07T04:28:36;24.50;48.80
30594;DHT22;33199;47.590;8.300;2022-08-07T04:31:02;24.50;48.80
30594;DHT22;33199;47.590;8.300;2022-08-07T04:33:28;24.50;48.90
30594;DHT22;33199;47.590;8.300;2022-08-07T04:35:54;24.50;48.80
30594;DHT22;33199;47.590;8.300;2022-08-07T04:38:20;24.50;48.80
30594;DHT22;33199;47.590;8.300;2022-08-07T04:40:46;24.50;48.80
30594;DHT22;33199;47.590;8.300;2022-08-07T04:43:15;24.50;48.80
30594;DHT22;33199;47.590;8.300;2022-08-07T04:51:43;24.50;48.90
30594;DHT22;33199;47.590;8.300;2022-08-07T04:59:50;24.50;49.00
30594;DHT22;33199;47.590;8.300;2022-08-07T05:02:29;24.50;49.00
30594;DHT22;33199;47.590;8.300;2022-08-07T05:05:20;24.50;49.00
30594;DHT22;33199;47.590;8.300;2022-08-07T05:10:23;24.50;49.00
30594;DHT22;33199;47.590;8.300;2022-08-07T05:13:23;24.40;49.00
30594;DHT22;33199;47.590;8.300;2022-08-07T05:15:52;24.50;49.00
30594;DHT22;33199;47.590;8.300;2022-08-07T05:18:26;24.40;49.00
30594;DHT22;33199;47.590;8.300;2022-08-07T05:20:55;24.50;49.00
30594;DHT22;33199;47.590;8.300;2022-08-07T05:23:46;24.40;49.00
30594;DHT22;33199;47.590;8.300;2022-08-07T05:26:16;24.50;49.00
30594;DHT22;33199;47.590;8.300;2022-08-07T05:28:44;24.40;49.00
30594;DHT22;33199;47.590;8.300;2022-08-07T05:31:11;24.40;49.00
30594;DHT22;33199;47.590;8.300;2022-08-07T05:33:38;24.40;49.00
30594;DHT22;33199;47.590;8.300;2022-08-07T05:36:06;24.40;49.00
30594;DHT22;33199;47.590;8.300;2022-08-07T05:38:33;24.40;49.00
30594;DHT22;33199;47.590;8.300;2022-08-07T05:41:00;24.40;49.00
30594;DHT22;33199;47.590;8.300;2022-08-07T05:43:26;24.40;49.10
30594;DHT22;33199;47.590;8.300;2022-08-07T05:45:51;24.40;49.10
30594;DHT22;33199;47.590;8.300;2022-08-07T05:48:18;24.40;49.10
30594;DHT22;33199;47.590;8.300;2022-08-07T05:50:45;24.40;49.10
30594;DHT22;33199;47.590;8.300;2022-08-07T05:53:11;24.40;49.00
30594;DHT22;33199;47.590;8.300;2022-08-07T05:55:37;24.40;49.70
30594;DHT22;33199;47.590;8.300;2022-08-07T05:58:04;24.40;49.10
30594;DHT22;33199;47.590;8.300;2022-08-07T06:00:32;24.40;49.10
30594;DHT22;33199;47.590;8.300;2022-08-07T06:02:59;24.40;49.10
30594;DHT22;33199;47.590;8.300;2022-08-07T06:05:26;24.40;49.10
30594;DHT22;33199;47.590;8.300;2022-08-07T06:07:53;24.40;49.10
30594;DHT22;33199;47.590;8.300;2022-08-07T06:10:20;24.30;49.10
30594;DHT22;33199;47.590;8.300;2022-08-07T06:12:46;24.30;49.70
30594;DHT22;33199;47.590;8.300;2022-08-07T06:15:14;24.20;49.90
30594;DHT22;33199;47.590;8.300;2022-08-07T06:17:41;24.00;50.50
30594;DHT22;33199;47.590;8.300;2022-08-07T06:20:09;23.80;51.80
30594;DHT22;33199;47.590;8.300;2022-08-07T06:22:36;23.70;51.40
30594;DHT22;33199;47.590;8.300;2022-08-07T06:25:03;23.50;52.00
30594;DHT22;33199;47.590;8.300;2022-08-07T06:27:28;23.40;52.00
30594;DHT22;33199;47.590;8.300;2022-08-07T06:29:54;23.30;52.30
30594;DHT22;33199;47.590;8.300;2022-08-07T06:32:20;23.20;52.80
30594;DHT22;33199;47.590;8.300;2022-08-07T06:34:45;23.20;52.90
30594;DHT22;33199;47.590;8.300;2022-08-07T06:37:11;23.00;53.00
30594;DHT22;33199;47.590;8.300;2022-08-07T06:39:36;22.90;53.00
30594;DHT22;33199;47.590;8.300;2022-08-07T06:42:19;22.80;53.50
30594;DHT22;33199;47.590;8.300;2022-08-07T06:44:47;22.70;53.30
30594;DHT22;33199;47.590;8.300;2022-08-07T06:47:13;22.70;53.60
30594;DHT22;33199;47.590;8.300;2022-08-07T06:49:39;22.60;53.60
30594;DHT22;33199;47.590;8.300;2022-08-07T06:52:07;22.60;54.00
30594;DHT22;33199;47.590;8.300;2022-08-07T06:54:35;22.50;54.20
30594;DHT22;33199;47.590;8.300;2022-08-07T06:57:02;22.40;54.40
30594;DHT22;33199;47.590;8.300;2022-08-07T06:59:37;22.40;54.50
30594;DHT22;33199;47.590;8.300;2022-08-07T07:02:06;22.40;54.30
30594;DHT22;33199;47.590;8.300;2022-08-07T07:04:32;22.30;54.60
30594;DHT22;33199;47.590;8.300;2022-08-07T07:06:58;22.30;55.00
30594;DHT22;33199;47.590;8.300;2022-08-07T07:09:26;22.30;54.90
30594;DHT22;33199;47.590;8.300;2022-08-07T07:14:36;22.30;54.80
30594;DHT22;33199;47.590;8.300;2022-08-07T07:17:09;22.20;55.00
30594;DHT22;33199;47.590;8.300;2022-08-07T07:19:46;22.20;55.10
30594;DHT22;33199;47.590;8.300;2022-08-07T07:22:14;22.20;55.00
30594;DHT22;33199;47.590;8.300;2022-08-07T07:24:41;22.20;55.10
30594;DHT22;33199;47.590;8.300;2022-08-07T07:27:09;22.20;55.20
30594;DHT22;33199;47.590;8.300;2022-08-07T07:29:37;22.20;55.30
30594;DHT22;33199;47.590;8.300;2022-08-07T07:32:07;22.20;55.40
30594;DHT22;33199;47.590;8.300;2022-08-07T07:34:35;22.20;55.00
30594;DHT22;33199;47.590;8.300;2022-08-07T07:37:03;22.10;55.10
30594;DHT22;33199;47.590;8.300;2022-08-07T07:39:31;22.20;55.60
30594;DHT22;33199;47.590;8.300;2022-08-07T07:41:59;22.20;55.10
30594;DHT22;33199;47.590;8.300;2022-08-07T07:44:27;22.10;55.10
30594;DHT22;33199;47.590;8.300;2022-08-07T07:46:54;22.10;55.20
30594;DHT22;33199;47.590;8.300;2022-08-07T07:49:22;22.10;55.20
30594;DHT22;33199;47.590;8.300;2022-08-07T07:51:49;22.10;54.90
30594;DHT22;33199;47.590;8.300;2022-08-07T07:54:17;22.10;54.90
30594;DHT22;33199;47.590;8.300;2022-08-07T07:56:45;22.20;54.90
30594;DHT22;33199;47.590;8.300;2022-08-07T07:59:11;22.20;55.00
30594;DHT22;33199;47.590;8.300;2022-08-07T08:01:42;22.10;55.20
30594;DHT22;33199;47.590;8.300;2022-08-07T08:04:10;22.10;55.10
30594;DHT22;33199;47.590;8.300;2022-08-07T08:06:42;22.20;55.10
30594;DHT22;33199;47.590;8.300;2022-08-07T08:09:08;22.10;55.60
30594;DHT22;33199;47.590;8.300;2022-08-07T08:11:34;22.10;55.80
30594;DHT22;33199;47.590;8.300;2022-08-07T08:14:00;22.10;55.40
30594;DHT22;33199;47.590;8.300;2022-08-07T08:16:46;22.10;55.60
30594;DHT22;33199;47.590;8.300;2022-08-07T08:19:16;22.20;55.20
30594;DHT22;33199;47.590;8.300;2022-08-07T08:21:46;22.20;54.80
30594;DHT22;33199;47.590;8.300;2022-08-07T08:24:36;22.30;54.70
30594;DHT22;33199;47.590;8.300;2022-08-07T08:27:21;22.40;54.30
30594;DHT22;33199;47.590;8.300;2022-08-07T08:29:56;22.50;54.10
30594;DHT22;33199;47.590;8.300;2022-08-07T08:32:28;22.60;53.80
30594;DHT22;33199;47.590;8.300;2022-08-07T08:34:57;22.60;53.50
30594;DHT22;33199;47.590;8.300;2022-08-07T08:37:26;22.60;53.30
30594;DHT22;33199;47.590;8.300;2022-08-07T08:39:53;22.70;53.10
30594;DHT22;33199;47.590;8.300;2022-08-07T08:42:24;22.70;52.90
30594;DHT22;33199;47.590;8.300;2022-08-07T08:45:00;22.80;52.70
30594;DHT22;33199;47.590;8.300;2022-08-07T08:47:43;22.80;52.60
30594;DHT22;33199;47.590;8.300;2022-08-07T08:50:20;22.80;52.40
30594;DHT22;33199;47.590;8.300;2022-08-07T08:53:03;22.80;52.30
30594;DHT22;33199;47.590;8.300;2022-08-07T08:55:37;22.90;52.40
30594;DHT22;33199;47.590;8.300;2022-08-07T08:58:13;22.90;52.40
30594;DHT22;33199;47.590;8.300;2022-08-07T09:00:43;22.90;52.20
30594;DHT22;33199;47.590;8.300;2022-08-07T09:03:31;22.90;52.30
30594;DHT22;33199;47.590;8.300;2022-08-07T09:06:05;22.90;52.30
30594;DHT22;33199;47.590;8.300;2022-08-07T09:09:02;22.90;52.10
30594;DHT22;33199;47.590;8.300;2022-08-07T09:11:49;22.90;52.00
30594;DHT22;33199;47.590;8.300;2022-08-07T09:14:32;23.00;52.10
30594;DHT22;33199;47.590;8.300;2022-08-07T09:17:09;23.00;52.00
30594;DHT22;33199;47.590;8.300;2022-08-07T09:25:14;23.10;51.90
30594;DHT22;33199;47.590;8.300;2022-08-07T09:27:48;23.00;51.90
30594;DHT22;33199;47.590;8.300;2022-08-07T09:30:16;23.10;51.80
30594;DHT22;33199;47.590;8.300;2022-08-07T09:36:06;23.10;51.80
30594;DHT22;33199;47.590;8.300;2022-08-07T09:41:46;23.10;51.80
30594;DHT22;33199;47.590;8.300;2022-08-07T09:47:18;23.10;51.70
30594;DHT22;33199;47.590;8.300;2022-08-07T09:50:13;23.10;51.70
30594;DHT22;33199;47.590;8.300;2022-08-07T09:52:47;23.10;51.60
30594;DHT22;33199;47.590;8.300;2022-08-07T09:55:30;23.10;51.50
30594;DHT22;33199;47.590;8.300;2022-08-07T10:04:30;23.10;51.60
30594;DHT22;33199;47.590;8.300;2022-08-07T10:07:12;23.20;51.60
30594;DHT22;33199;47.590;8.300;2022-08-07T10:15:53;23.20;51.50
30594;DHT22;33199;47.590;8.300;2022-08-07T10:18:45;23.20;51.50
30594;DHT22;33199;47.590;8.300;2022-08-07T10:41:24;23.20;51.40
30594;DHT22;33199;47.590;8.300;2022-08-07T10:44:10;23.20;51.30
30594;DHT22;33199;47.590;8.300;2022-08-07T10:49:33;23.30;53.10
30594;DHT22;33199;47.590;8.300;2022-08-07T10:52:08;23.40;53.20
30594;DHT22;33199;47.590;8.300;2022-08-07T10:54:42;23.40;52.50
30594;DHT22;33199;47.590;8.300;2022-08-07T10:57:38;23.50;52.30
30594;DHT22;33199;47.590;8.300;2022-08-07T11:00:12;23.60;52.20
30594;DHT22;33199;47.590;8.300;2022-08-07T11:05:43;23.60;51.90
30594;DHT22;33199;47.590;8.300;2022-08-07T11:11:22;23.70;51.70
30594;DHT22;33199;47.590;8.300;2022-08-07T11:16:46;23.70;51.60
30594;DHT22;33199;47.590;8.300;2022-08-07T11:19:19;23.70;51.60
30594;DHT22;33199;47.590;8.300;2022-08-07T11:24:57;23.70;51.60
30594;DHT22;33199;47.590;8.300;2022-08-07T11:27:39;23.70;51.50
30594;DHT22;33199;47.590;8.300;2022-08-07T11:30:10;23.70;51.50
30594;DHT22;33199;47.590;8.300;2022-08-07T11:35:28;23.70;51.40
30594;DHT22;33199;47.590;8.300;2022-08-07T11:38:07;23.70;51.40
30594;DHT22;33199;47.590;8.300;2022-08-07T11:43:27;23.70;51.40
30594;DHT22;33199;47.590;8.300;2022-08-07T11:49:16;23.70;51.30
30594;DHT22;33199;47.590;8.300;2022-08-07T11:52:06;23.70;51.40
30594;DHT22;33199;47.590;8.300;2022-08-07T12:00:27;23.70;51.30
30594;DHT22;33199;47.590;8.300;2022-08-07T12:06:22;23.70;51.30
30594;DHT22;33199;47.590;8.300;2022-08-07T12:08:54;23.70;51.80
30594;DHT22;33199;47.590;8.300;2022-08-07T12:11:26;23.80;51.00
30594;DHT22;33199;47.590;8.300;2022-08-07T12:16:38;23.90;50.60
30594;DHT22;33199;47.590;8.300;2022-08-07T12:24:38;24.00;50.80
30594;DHT22;33199;47.590;8.300;2022-08-07T12:27:28;24.10;50.70
30594;DHT22;33199;47.590;8.300;2022-08-07T12:30:03;24.10;50.50
30594;DHT22;33199;47.590;8.300;2022-08-07T12:32:59;24.20;50.50
30594;DHT22;33199;47.590;8.300;2022-08-07T12:35:27;24.20;50.40
30594;DHT22;33199;47.590;8.300;2022-08-07T12:37:56;24.20;50.40
30594;DHT22;33199;47.590;8.300;2022-08-07T12:40:25;24.20;50.40
30594;DHT22;33199;47.590;8.300;2022-08-07T12:42:52;24.20;50.50
30594;DHT22;33199;47.590;8.300;2022-08-07T12:45:21;24.20;50.40
30594;DHT22;33199;47.590;8.300;2022-08-07T12:48:13;24.20;50.40
30594;DHT22;33199;47.590;8.300;2022-08-07T12:50:43;24.20;50.30
30594;DHT22;33199;47.590;8.300;2022-08-07T12:55:50;24.20;50.40
30594;DHT22;33199;47.590;8.300;2022-08-07T12:58:19;24.20;50.40
30594;DHT22;33199;47.590;8.300;2022-08-07T13:03:43;24.20;50.40
30594;DHT22;33199;47.590;8.300;2022-08-07T13:09:16;24.20;50.40
30594;DHT22;33199;47.590;8.300;2022-08-07T13:11:56;24.20;50.40
30594;DHT22;33199;47.590;8.300;2022-08-07T13:14:42;24.20;50.40
30594;DHT22;33199;47.590;8.300;2022-08-07T13:17:23;24.20;50.50
30594;DHT22;33199;47.590;8.300;2022-08-07T13:22:40;24.20;50.40
30594;DHT22;33199;47.590;8.300;2022-08-07T13:25:12;24.20;50.50
30594;DHT22;33199;47.590;8.300;2022-08-07T13:27:44;24.20;50.50
30594;DHT22;33199;47.590;8.300;2022-08-07T13:30:12;24.20;50.50
30594;DHT22;33199;47.590;8.300;2022-08-07T13:32:49;24.20;50.50
30594;DHT22;33199;47.590;8.300;2022-08-07T13:35:36;24.20;50.50
30594;DHT22;33199;47.590;8.300;2022-08-07T13:38:16;24.20;50.50
30594;DHT22;33199;47.590;8.300;2022-08-07T13:41:03;24.20;50.50
30594;DHT22;33199;47.590;8.300;2022-08-07T13:43:30;24.30;50.60
30594;DHT22;33199;47.590;8.300;2022-08-07T13:46:00;24.30;50.50
30594;DHT22;33199;47.590;8.300;2022-08-07T13:48:29;24.30;50.60
30594;DHT22;33199;47.590;8.300;2022-08-07T13:50:57;24.20;50.50
30594;DHT22;33199;47.590;8.300;2022-08-07T13:53:34;24.30;50.50
30594;DHT22;33199;47.590;8.300;2022-08-07T13:56:02;24.30;50.50
30594;DHT22;33199;47.590;8.300;2022-08-07T13:58:31;24.20;50.50
30594;DHT22;33199;47.590;8.300;2022-08-07T14:01:21;24.30;50.50
30594;DHT22;33199;47.590;8.300;2022-08-07T14:03:48;24.30;50.60
30594;DHT22;33199;47.590;8.300;2022-08-07T14:06:15;24.30;50.50
30594;DHT22;33199;47.590;8.300;2022-08-07T14:08:48;24.30;50.50
30594;DHT22;33199;47.590;8.300;2022-08-07T14:11:16;24.30;50.50
30594;DHT22;33199;47.590;8.300;2022-08-07T14:13:48;24.30;50.50
30594;DHT22;33199;47.590;8.300;2022-08-07T14:16:18;24.30;50.50
30594;DHT22;33199;47.590;8.300;2022-08-07T14:18:47;24.30;50.50
30594;DHT22;33199;47.590;8.300;2022-08-07T14:21:31;24.30;50.50
30594;DHT22;33199;47.590;8.300;2022-08-07T14:24:03;24.30;50.40
30594;DHT22;33199;47.590;8.300;2022-08-07T14:26:50;24.30;50.50
30594;DHT22;33199;47.590;8.300;2022-08-07T14:29:32;24.30;50.50
30594;DHT22;33199;47.590;8.300;2022-08-07T14:32:02;24.30;50.50
30594;DHT22;33199;47.590;8.300;2022-08-07T14:34:31;24.30;50.50
30594;DHT22;33199;47.590;8.300;2022-08-07T14:36:59;24.30;50.50
30594;DHT22;33199;47.590;8.300;2022-08-07T14:39:26;24.30;50.50
30594;DHT22;33199;47.590;8.300;2022-08-07T14:41:52;24.30;50.50
30594;DHT22;33199;47.590;8.300;2022-08-07T14:44:20;24.30;50.50
30594;DHT22;33199;47.590;8.300;2022-08-07T14:46:48;24.30;50.50
30594;DHT22;33199;47.590;8.300;2022-08-07T14:49:16;24.30;50.50
30594;DHT22;33199;47.590;8.300;2022-08-07T14:51:43;24.30;50.60
30594;DHT22;33199;47.590;8.300;2022-08-07T14:54:10;24.30;50.50
30594;DHT22;33199;47.590;8.300;2022-08-07T14:56:40;24.30;50.50
30594;DHT22;33199;47.590;8.300;2022-08-07T14:59:08;24.30;50.40
30594;DHT22;33199;47.590;8.300;2022-08-07T15:01:39;24.30;50.50
30594;DHT22;33199;47.590;8.300;2022-08-07T15:04:08;24.30;50.40
30594;DHT22;33199;47.590;8.300;2022-08-07T15:06:37;24.40;50.50
30594;DHT22;33199;47.590;8.300;2022-08-07T15:09:12;24.40;50.50
30594;DHT22;33199;47.590;8.300;2022-08-07T15:11:42;24.30;50.40
30594;DHT22;33199;47.590;8.300;2022-08-07T15:14:15;24.30;50.50
30594;DHT22;33199;47.590;8.300;2022-08-07T15:16:45;24.30;50.50
30594;DHT22;33199;47.590;8.300;2022-08-07T15:19:16;24.30;50.50
30594;DHT22;33199;47.590;8.300;2022-08-07T15:21:48;24.40;50.50
30594;DHT22;33199;47.590;8.300;2022-08-07T15:24:20;24.40;50.50
30594;DHT22;33199;47.590;8.300;2022-08-07T15:26:56;24.40;50.50
30594;DHT22;33199;47.590;8.300;2022-08-07T15:29:23;24.40;50.50
30594;DHT22;33199;47.590;8.300;2022-08-07T15:32:00;24.40;50.50
30594;DHT22;33199;47.590;8.300;2022-08-07T15:34:37;24.40;50.60
30594;DHT22;33199;47.590;8.300;2022-08-07T15:37:06;24.40;50.50
30594;DHT22;33199;47.590;8.300;2022-08-07T15:39:37;24.40;50.50
30594;DHT22;33199;47.590;8.300;2022-08-07T15:42:05;24.40;50.50
30594;DHT22;33199;47.590;8.300;2022-08-07T15:44:44;24.40;50.50
30594;DHT22;33199;47.590;8.300;2022-08-07T15:47:12;24.40;50.50
30594;DHT22;33199;47.590;8.300;2022-08-07T15:49:39;24.40;50.50
30594;DHT22;33199;47.590;8.300;2022-08-07T15:52:08;24.40;50.50
30594;DHT22;33199;47.590;8.300;2022-08-07T15:54:37;24.40;50.50
30594;DHT22;33199;47.590;8.300;2022-08-07T15:57:06;24.40;50.50
30594;DHT22;33199;47.590;8.300;2022-08-07T15:59:34;24.40;50.50
30594;DHT22;33199;47.590;8.300;2022-08-07T16:02:04;24.40;50.50
30594;DHT22;33199;47.590;8.300;2022-08-07T16:04:32;24.40;50.50
30594;DHT22;33199;47.590;8.300;2022-08-07T16:07:00;24.40;50.50
30594;DHT22;33199;47.590;8.300;2022-08-07T16:12:32;24.40;50.50
30594;DHT22;33199;47.590;8.300;2022-08-07T16:18:14;24.40;50.50
30594;DHT22;33199;47.590;8.300;2022-08-07T16:21:06;24.40;50.50
30594;DHT22;33199;47.590;8.300;2022-08-07T16:34:06;24.40;50.50
30594;DHT22;33199;47.590;8.300;2022-08-07T16:40:03;24.50;50.50
30594;DHT22;33199;47.590;8.300;2022-08-07T16:43:03;24.50;50.50
30594;DHT22;33199;47.590;8.300;2022-08-07T16:54:19;24.50;50.60
30594;DHT22;33199;47.590;8.300;2022-08-07T16:59:32;24.50;50.60
30594;DHT22;33199;47.590;8.300;2022-08-07T17:05:17;24.50;50.50
30594;DHT22;33199;47.590;8.300;2022-08-07T17:10:33;24.50;50.50
30594;DHT22;33199;47.590;8.300;2022-08-07T17:16:06;24.50;50.50
30594;DHT22;33199;47.590;8.300;2022-08-07T17:21:25;24.50;50.40
30594;DHT22;33199;47.590;8.300;2022-08-07T17:26:48;24.50;50.10
30594;DHT22;33199;47.590;8.300;2022-08-07T17:34:47;24.60;50.30
30594;DHT22;33199;47.590;8.300;2022-08-07T17:37:38;24.60;50.20
30594;DHT22;33199;47.590;8.300;2022-08-07T17:40:45;24.60;50.20
30594;DHT22;33199;47.590;8.300;2022-08-07T17:43:25;24.60;50.20
30594;DHT22;33199;47.590;8.300;2022-08-07T17:45:55;24.60;50.20
30594;DHT22;33199;47.590;8.300;2022-08-07T17:48:26;24.60;50.30
30594;DHT22;33199;47.590;8.300;2022-08-07T17:51:07;24.60;50.30
30594;DHT22;33199;47.590;8.300;2022-08-07T18:04:22;24.50;50.40
30594;DHT22;33199;47.590;8.300;2022-08-07T18:07:14;24.50;50.30
30594;DHT22;33199;47.590;8.300;2022-08-07T18:09:45;24.60;50.30
30594;DHT22;33199;47.590;8.300;2022-08-07T18:15:27;24.50;50.30
30594;DHT22;33199;47.590;8.300;2022-08-07T18:18:00;24.50;50.30
30594;DHT22;33199;47.590;8.300;2022-08-07T18:20:32;24.60;50.30
30594;DHT22;33199;47.590;8.300;2022-08-07T18:26:11;24.60;50.20
30594;DHT22;33199;47.590;8.300;2022-08-07T18:40:18;24.60;50.40
30594;DHT22;33199;47.590;8.300;2022-08-07T18:45:26;24.60;50.40
30594;DHT22;33199;47.590;8.300;2022-08-07T19:05:07;24.50;50.40
30594;DHT22;33199;47.590;8.300;2022-08-07T19:08:05;24.60;50.40
30594;DHT22;33199;47.590;8.300;2022-08-07T19:10:47;24.60;50.40
30594;DHT22;33199;47.590;8.300;2022-08-07T19:16:23;24.50;50.40
30594;DHT22;33199;47.590;8.300;2022-08-07T19:19:02;24.50;50.50
30594;DHT22;33199;47.590;8.300;2022-08-07T19:21:42;24.50;50.50
30594;DHT22;33199;47.590;8.300;2022-08-07T19:24:25;24.50;50.40
30594;DHT22;33199;47.590;8.300;2022-08-07T19:26:53;24.50;50.50
30594;DHT22;33199;47.590;8.300;2022-08-07T19:29:22;24.50;50.50
30594;DHT22;33199;47.590;8.300;2022-08-07T19:31:52;24.50;50.40
30594;DHT22;33199;47.590;8.300;2022-08-07T19:34:22;24.50;50.40